sensor_id;sensor_type;location;lat;lon;timestamp;pressure;altitude;pressure_sealevel;temperature;humidity
13836;BME280;6988;52.614;13.500;2023-02-15T00:03:44;54857.13;;;-143.77;79.42
13836;BME280;6988;52.614;13.500;2023-02-15T00:08:36;54820.19;;;-143.77;79.37
13836;BME280;6988;52.614;13.500;2023-02-15T00:13:30;54842.75;;;-143.77;78.87
13836;BME280;6988;52.614;13.500;2023-02-15T00:18:22;54871.50;;;-143.77;78.99
13836;BME280;6988;52.614;13.500;2023-02-15T00:23:13;54861.22;;;-143.77;78.75
13836;BME280;6988;52.614;13.500;2023-02-15T00:28:05;54885.84;;;-143.77;79.29
13836;BME280;6988;52.614;13.500;2023-02-15T00:33:00;54853.03;;;-143.77;79.51
13836;BME280;6988;52.614;13.500;2023-02-15T00:37:52;54865.34;;;-143.77;79.28
13836;BME280;6988;52.614;13.500;2023-02-15T00:42:43;54898.16;;;-143.77;79.82
13836;BME280;6988;52.614;13.500;2023-02-15T00:47:35;54879.69;;;-143.77;80.21
13836;BME280;6988;52.614;13.500;2023-02-15T00:52:29;54873.53;;;-143.77;80.10
13836;BME280;6988;52.614;13.500;2023-02-15T00:57:20;54887.91;;;-143.77;79.97
13836;BME280;6988;52.614;13.500;2023-02-15T01:02:12;54896.13;;;-143.77;79.66
13836;BME280;6988;52.614;13.500;2023-02-15T01:07:04;54887.91;;;-143.77;79.32
13836;BME280;6988;52.614;13.500;2023-02-15T01:11:59;54902.28;;;-143.77;79.00
13836;BME280;6988;52.614;13.500;2023-02-15T01:16:51;54902.28;;;-143.77;78.79
13836;BME280;6988;52.614;13.500;2023-02-15T01:21:42;54912.53;;;-143.77;78.80
13836;BME280;6988;52.614;13.500;2023-02-15T01:26:34;54898.16;;;-143.77;78.96
13836;BME280;6988;52.614;13.500;2023-02-15T01:31:27;54894.06;;;-143.77;78.72
13836;BME280;6988;52.614;13.500;2023-02-15T01:36:19;54918.69;;;-143.77;78.85
13836;BME280;6988;52.614;13.500;2023-02-15T01:41:11;54881.75;;;-143.77;78.88
13836;BME280;6988;52.614;13.500;2023-02-15T01:46:17;54916.63;;;-143.77;78.67
13836;BME280;6988;52.614;13.500;2023-02-15T01:51:14;54902.28;;;-143.77;78.67
13836;BME280;6988;52.614;13.500;2023-02-15T01:56:13;54933.06;;;-143.77;78.91
13836;BME280;6988;52.614;13.500;2023-02-15T02:01:08;54933.06;;;-143.77;79.15
13836;BME280;6988;52.614;13.500;2023-02-15T02:06:00;54941.25;;;-143.77;78.92
13836;BME280;6988;52.614;13.500;2023-02-15T02:10:53;54931.00;;;-143.77;79.35
13836;BME280;6988;52.614;13.500;2023-02-15T02:15:53;54937.16;;;-143.77;78.37
13836;BME280;6988;52.614;13.500;2023-02-15T02:21:41;54963.84;;;-143.77;78.39
13836;BME280;6988;52.614;13.500;2023-02-15T02:27:24;54972.03;;;-143.77;79.83
13836;BME280;6988;52.614;13.500;2023-02-15T02:33:02;54992.56;;;-143.77;80.56
13836;BME280;6988;52.614;13.500;2023-02-15T02:38:08;54972.03;;;-143.77;81.00
13836;BME280;6988;52.614;13.500;2023-02-15T02:43:11;54963.84;;;-143.77;80.63
13836;BME280;6988;52.614;13.500;2023-02-15T02:48:13;54976.16;;;-143.77;80.55
13836;BME280;6988;52.614;13.500;2023-02-15T02:53:08;54978.19;;;-143.77;80.41
13836;BME280;6988;52.614;13.500;2023-02-15T02:58:05;54951.53;;;-143.77;80.91
13836;BME280;6988;52.614;13.500;2023-02-15T03:03:06;54986.41;;;-143.77;82.18
13836;BME280;6988;52.614;13.500;2023-02-15T03:08:04;54963.84;;;-143.77;82.27
13836;BME280;6988;52.614;13.500;2023-02-15T03:13:00;54978.19;;;-143.77;83.18
13836;BME280;6988;52.614;13.500;2023-02-15T03:17:57;55011.03;;;-143.77;83.43
13836;BME280;6988;52.614;13.500;2023-02-15T03:22:57;55006.94;;;-143.77;83.34
13836;BME280;6988;52.614;13.500;2023-02-15T03:27:58;54970.00;;;-143.77;83.13
13836;BME280;6988;52.614;13.500;2023-02-15T03:32:53;54996.66;;;-143.77;81.95
13836;BME280;6988;52.614;13.500;2023-02-15T03:37:51;55002.81;;;-143.77;81.87
13836;BME280;6988;52.614;13.500;2023-02-15T03:42:49;54998.72;;;-143.77;82.76
13836;BME280;6988;52.614;13.500;2023-02-15T03:47:49;55002.81;;;-143.77;81.84
13836;BME280;6988;52.614;13.500;2023-02-15T03:52:42;54984.34;;;-143.77;82.52
13836;BME280;6988;52.614;13.500;2023-02-15T03:57:36;54972.03;;;-143.77;82.23
13836;BME280;6988;52.614;13.500;2023-02-15T04:03:05;54992.56;;;-143.77;82.53
13836;BME280;6988;52.614;13.500;2023-02-15T04:07:59;55029.50;;;-143.77;83.48
13836;BME280;6988;52.614;13.500;2023-02-15T04:12:51;55027.44;;;-143.77;83.36
13836;BME280;6988;52.614;13.500;2023-02-15T04:17:42;55021.28;;;-143.77;83.64
13836;BME280;6988;52.614;13.500;2023-02-15T04:22:35;54990.50;;;-143.77;84.77
13836;BME280;6988;52.614;13.500;2023-02-15T04:27:48;54988.47;;;-143.77;84.77
13836;BME280;6988;52.614;13.500;2023-02-15T04:32:40;54980.25;;;-143.77;84.57
13836;BME280;6988;52.614;13.500;2023-02-15T04:37:33;54984.34;;;-143.77;84.55
13836;BME280;6988;52.614;13.500;2023-02-15T04:42:27;55035.66;;;-143.77;83.96
13836;BME280;6988;52.614;13.500;2023-02-15T04:47:19;55008.97;;;-143.77;84.31
13836;BME280;6988;52.614;13.500;2023-02-15T04:52:12;55004.88;;;-143.77;85.05
13836;BME280;6988;52.614;13.500;2023-02-15T04:57:03;55021.28;;;-143.77;85.09
13836;BME280;6988;52.614;13.500;2023-02-15T05:01:57;55006.94;;;-143.77;84.19
13836;BME280;6988;52.614;13.500;2023-02-15T05:06:49;55025.41;;;-143.77;84.90
13836;BME280;6988;52.614;13.500;2023-02-15T05:11:41;55011.03;;;-143.77;85.00
13836;BME280;6988;52.614;13.500;2023-02-15T05:16:33;55017.19;;;-143.77;84.42
13836;BME280;6988;52.614;13.500;2023-02-15T05:21:27;55021.28;;;-143.77;84.63
13836;BME280;6988;52.614;13.500;2023-02-15T05:26:22;55004.88;;;-143.77;84.33
13836;BME280;6988;52.614;13.500;2023-02-15T05:31:34;55021.28;;;-143.77;84.87
13836;BME280;6988;52.614;13.500;2023-02-15T05:36:27;55050.03;;;-143.77;85.06
13836;BME280;6988;52.614;13.500;2023-02-15T05:41:19;55021.28;;;-143.77;84.99
13836;BME280;6988;52.614;13.500;2023-02-15T05:46:12;55033.59;;;-143.77;83.83
13836;BME280;6988;52.614;13.500;2023-02-15T05:51:07;54996.66;;;-143.77;83.48
13836;BME280;6988;52.614;13.500;2023-02-15T05:56:02;55045.91;;;-143.77;82.59
13836;BME280;6988;52.614;13.500;2023-02-15T06:00:54;55017.19;;;-143.77;83.76
13836;BME280;6988;52.614;13.500;2023-02-15T06:05:46;55019.25;;;-143.77;84.83
13836;BME280;6988;52.614;13.500;2023-02-15T06:10:40;55054.13;;;-143.77;86.36
13836;BME280;6988;52.614;13.500;2023-02-15T06:15:33;55041.81;;;-143.77;86.64
13836;BME280;6988;52.614;13.500;2023-02-15T06:20:25;55011.03;;;-143.77;87.22
13836;BME280;6988;52.614;13.500;2023-02-15T06:25:17;55021.28;;;-143.77;87.62
13836;BME280;6988;52.614;13.500;2023-02-15T06:30:11;55013.09;;;-143.77;87.49
13836;BME280;6988;52.614;13.500;2023-02-15T06:35:05;54988.47;;;-143.77;87.73
13836;BME280;6988;52.614;13.500;2023-02-15T06:39:57;55000.78;;;-143.77;87.79
13836;BME280;6988;52.614;13.500;2023-02-15T06:44:49;55019.25;;;-143.77;87.71
13836;BME280;6988;52.614;13.500;2023-02-15T06:49:41;54984.34;;;-143.77;88.50
13836;BME280;6988;52.614;13.500;2023-02-15T06:54:34;54992.56;;;-143.77;88.82
13836;BME280;6988;52.614;13.500;2023-02-15T06:59:26;55017.19;;;-143.77;89.30
13836;BME280;6988;52.614;13.500;2023-02-15T07:04:18;55000.78;;;-143.77;89.65
13836;BME280;6988;52.614;13.500;2023-02-15T07:09:09;54984.34;;;-143.77;89.82
13836;BME280;6988;52.614;13.500;2023-02-15T07:14:03;54996.66;;;-143.77;89.72
13836;BME280;6988;52.614;13.500;2023-02-15T07:18:54;55011.03;;;-143.77;89.33
13836;BME280;6988;52.614;13.500;2023-02-15T07:23:46;55006.94;;;-143.77;88.75
13836;BME280;6988;52.614;13.500;2023-02-15T07:28:38;54990.50;;;-143.77;89.39
13836;BME280;6988;52.614;13.500;2023-02-15T07:33:32;55000.78;;;-143.77;89.13
13836;BME280;6988;52.614;13.500;2023-02-15T07:38:26;55000.78;;;-143.77;89.65
13836;BME280;6988;52.614;13.500;2023-02-15T07:43:18;54996.66;;;-143.77;89.29
13836;BME280;6988;52.614;13.500;2023-02-15T07:48:10;55000.78;;;-143.77;89.67
13836;BME280;6988;52.614;13.500;2023-02-15T07:53:03;54982.31;;;-143.77;89.94
13836;BME280;6988;52.614;13.500;2023-02-15T07:57:55;54984.34;;;-143.77;90.02
13836;BME280;6988;52.614;13.500;2023-02-15T08:02:47;55021.28;;;-143.77;90.15
13836;BME280;6988;52.614;13.500;2023-02-15T08:07:59;54980.25;;;-143.77;90.17
13836;BME280;6988;52.614;13.500;2023-02-15T08:12:54;54984.34;;;-143.77;90.32
13836;BME280;6988;52.614;13.500;2023-02-15T08:17:46;54947.41;;;-143.77;89.70
13836;BME280;6988;52.614;13.500;2023-02-15T08:22:38;54949.47;;;-143.77;90.50
13836;BME280;6988;52.614;13.500;2023-02-15T08:27:30;54972.03;;;-143.77;90.79
13836;BME280;6988;52.614;13.500;2023-02-15T08:32:23;54972.03;;;-143.77;90.67
13836;BME280;6988;52.614;13.500;2023-02-15T08:37:14;54988.47;;;-143.77;90.54
13836;BME280;6988;52.614;13.500;2023-02-15T08:42:06;54978.19;;;-143.77;90.10
13836;BME280;6988;52.614;13.500;2023-02-15T08:46:58;54972.03;;;-143.77;90.23
13836;BME280;6988;52.614;13.500;2023-02-15T08:51:55;55002.81;;;-143.77;90.74
13836;BME280;6988;52.614;13.500;2023-02-15T08:56:47;54996.66;;;-143.77;91.31
13836;BME280;6988;52.614;13.500;2023-02-15T09:01:39;54951.53;;;-143.77;90.93
13836;BME280;6988;52.614;13.500;2023-02-15T09:06:32;54963.84;;;-143.77;90.63
13836;BME280;6988;52.614;13.500;2023-02-15T09:11:28;54976.16;;;-143.77;91.06
13836;BME280;6988;52.614;13.500;2023-02-15T09:16:21;54963.84;;;-143.77;91.58
13836;BME280;6988;52.614;13.500;2023-02-15T09:21:16;54939.22;;;-143.77;91.88
13836;BME280;6988;52.614;13.500;2023-02-15T09:26:11;54935.09;;;-143.77;92.18
13836;BME280;6988;52.614;13.500;2023-02-15T09:31:10;54949.47;;;-143.77;92.20
13836;BME280;6988;52.614;13.500;2023-02-15T09:36:03;54943.31;;;-143.77;92.38
13836;BME280;6988;52.614;13.500;2023-02-15T09:41:20;54926.91;;;-143.77;92.37
13836;BME280;6988;52.614;13.500;2023-02-15T09:46:49;54898.16;;;-143.77;91.39
13836;BME280;6988;52.614;13.500;2023-02-15T09:57:17;54933.06;;;-143.77;91.65
13836;BME280;6988;52.614;13.500;2023-02-15T10:02:30;54926.91;;;-143.77;91.71
13836;BME280;6988;52.614;13.500;2023-02-15T10:07:48;54896.13;;;-143.77;91.26
13836;BME280;6988;52.614;13.500;2023-02-15T10:13:00;54887.91;;;-143.77;91.60
13836;BME280;6988;52.614;13.500;2023-02-15T10:18:29;54887.91;;;-143.77;90.65
13836;BME280;6988;52.614;13.500;2023-02-15T10:24:21;54906.38;;;-143.77;90.67
13836;BME280;6988;52.614;13.500;2023-02-15T10:29:32;54871.50;;;-143.77;90.77
13836;BME280;6988;52.614;13.500;2023-02-15T10:34:37;54889.97;;;-143.77;90.50
13836;BME280;6988;52.614;13.500;2023-02-15T10:39:40;54861.22;;;-143.77;90.30
13836;BME280;6988;52.614;13.500;2023-02-15T10:44:52;54902.28;;;-143.77;89.17
13836;BME280;6988;52.614;13.500;2023-02-15T10:50:15;54838.66;;;-143.77;89.06
13836;BME280;6988;52.614;13.500;2023-02-15T10:55:18;54850.97;;;-143.77;88.66
13836;BME280;6988;52.614;13.500;2023-02-15T11:00:19;54853.03;;;-143.77;88.05
13836;BME280;6988;52.614;13.500;2023-02-15T11:05:41;54869.44;;;-143.77;87.58
13836;BME280;6988;52.614;13.500;2023-02-15T11:10:41;54844.81;;;-143.77;87.04
13836;BME280;6988;52.614;13.500;2023-02-15T11:15:39;54826.34;;;-143.77;86.51
13836;BME280;6988;52.614;13.500;2023-02-15T11:20:41;54855.06;;;-143.77;86.16
13836;BME280;6988;52.614;13.500;2023-02-15T11:25:35;54824.28;;;-143.77;85.73
13836;BME280;6988;52.614;13.500;2023-02-15T11:30:40;54853.03;;;-143.77;84.77
13836;BME280;6988;52.614;13.500;2023-02-15T11:35:46;54828.41;;;-143.77;84.91
13836;BME280;6988;52.614;13.500;2023-02-15T11:40:47;54797.63;;;-143.77;84.50
13836;BME280;6988;52.614;13.500;2023-02-15T11:45:42;54801.72;;;-143.77;83.86
13836;BME280;6988;52.614;13.500;2023-02-15T11:50:36;54801.72;;;-143.77;82.52
13836;BME280;6988;52.614;13.500;2023-02-15T11:55:30;54748.38;;;-143.77;80.69
13836;BME280;6988;52.614;13.500;2023-02-15T12:00:33;54738.09;;;-143.77;79.03
13836;BME280;6988;52.614;13.500;2023-02-15T12:05:27;54742.22;;;-143.77;77.08
13836;BME280;6988;52.614;13.500;2023-02-15T12:10:24;54709.38;;;-143.77;75.65
13836;BME280;6988;52.614;13.500;2023-02-15T12:15:30;54701.16;;;-143.77;75.95
13836;BME280;6988;52.614;13.500;2023-02-15T12:20:30;54705.28;;;-143.77;73.62
13836;BME280;6988;52.614;13.500;2023-02-15T12:25:29;54697.06;;;-143.77;72.01
13836;BME280;6988;52.614;13.500;2023-02-15T12:30:32;54668.34;;;-143.77;72.28
13836;BME280;6988;52.614;13.500;2023-02-15T12:35:30;54666.28;;;-143.77;70.99
13836;BME280;6988;52.614;13.500;2023-02-15T12:40:25;54639.59;;;-143.77;67.44
13836;BME280;6988;52.614;13.500;2023-02-15T12:45:27;54623.19;;;-143.77;67.78
13836;BME280;6988;52.614;13.500;2023-02-15T12:50:23;54612.94;;;-143.77;66.64
13836;BME280;6988;52.614;13.500;2023-02-15T12:55:23;54598.56;;;-143.77;66.01
13836;BME280;6988;52.614;13.500;2023-02-15T13:00:28;54600.63;;;-143.77;65.80
13836;BME280;6988;52.614;13.500;2023-02-15T13:05:31;54555.47;;;-143.77;64.19
13836;BME280;6988;52.614;13.500;2023-02-15T13:10:27;54561.63;;;-143.77;63.09
13836;BME280;6988;52.614;13.500;2023-02-15T13:15:34;54541.09;;;-143.77;61.84
13836;BME280;6988;52.614;13.500;2023-02-15T13:20:28;54561.63;;;-143.77;61.79
13836;BME280;6988;52.614;13.500;2023-02-15T13:25:23;54561.63;;;-143.77;60.33
13836;BME280;6988;52.614;13.500;2023-02-15T13:30:26;54545.22;;;-143.77;59.92
13836;BME280;6988;52.614;13.500;2023-02-15T13:35:21;54530.84;;;-143.77;61.14
13836;BME280;6988;52.614;13.500;2023-02-15T13:40:21;54516.50;;;-143.77;59.85
13836;BME280;6988;52.614;13.500;2023-02-15T13:45:33;54500.06;;;-143.77;59.38
13836;BME280;6988;52.614;13.500;2023-02-15T13:51:00;54495.97;;;-143.77;58.94
13836;BME280;6988;52.614;13.500;2023-02-15T13:56:02;54491.88;;;-143.77;58.61
13836;BME280;6988;52.614;13.500;2023-02-15T14:01:09;54469.28;;;-143.77;55.39
13836;BME280;6988;52.614;13.500;2023-02-15T14:06:33;54477.50;;;-143.77;56.24
13836;BME280;6988;52.614;13.500;2023-02-15T14:11:38;54469.28;;;-143.77;55.77
13836;BME280;6988;52.614;13.500;2023-02-15T14:16:43;54487.75;;;-143.77;56.27
13836;BME280;6988;52.614;13.500;2023-02-15T14:21:47;54504.19;;;-143.77;57.92
13836;BME280;6988;52.614;13.500;2023-02-15T14:26:50;54487.75;;;-143.77;57.19
13836;BME280;6988;52.614;13.500;2023-02-15T14:31:49;54459.03;;;-143.77;57.31
13836;BME280;6988;52.614;13.500;2023-02-15T14:36:45;54475.44;;;-143.77;56.96
13836;BME280;6988;52.614;13.500;2023-02-15T14:41:44;54516.50;;;-143.77;57.16
13836;BME280;6988;52.614;13.500;2023-02-15T14:46:47;54459.03;;;-143.77;56.98
13836;BME280;6988;52.614;13.500;2023-02-15T14:52:12;54483.66;;;-143.77;58.18
13836;BME280;6988;52.614;13.500;2023-02-15T14:57:29;54510.34;;;-143.77;59.60
13836;BME280;6988;52.614;13.500;2023-02-15T15:02:27;54541.09;;;-143.77;60.77
13836;BME280;6988;52.614;13.500;2023-02-15T15:07:24;54569.84;;;-143.77;61.10
13836;BME280;6988;52.614;13.500;2023-02-15T15:12:39;54553.41;;;-143.77;62.09
13836;BME280;6988;52.614;13.500;2023-02-15T15:17:59;54565.72;;;-143.77;62.82
13836;BME280;6988;52.614;13.500;2023-02-15T15:29:01;54547.25;;;-143.77;63.64
13836;BME280;6988;52.614;13.500;2023-02-15T15:34:43;54524.69;;;-143.77;64.22
13836;BME280;6988;52.614;13.500;2023-02-15T15:40:25;54580.09;;;-143.77;64.96
13836;BME280;6988;52.614;13.500;2023-02-15T15:45:46;54625.25;;;-143.77;64.51
13836;BME280;6988;52.614;13.500;2023-02-15T15:50:42;54621.13;;;-143.77;64.80
13836;BME280;6988;52.614;13.500;2023-02-15T15:55:36;54598.56;;;-143.77;65.41
13836;BME280;6988;52.614;13.500;2023-02-15T16:00:35;54627.28;;;-143.77;66.00
13836;BME280;6988;52.614;13.500;2023-02-15T16:05:36;54662.19;;;-143.77;65.66
13836;BME280;6988;52.614;13.500;2023-02-15T16:10:31;54678.59;;;-143.77;66.37
13836;BME280;6988;52.614;13.500;2023-02-15T16:15:35;54672.44;;;-143.77;67.32
13836;BME280;6988;52.614;13.500;2023-02-15T16:20:32;54660.13;;;-143.77;67.45
13836;BME280;6988;52.614;13.500;2023-02-15T16:25:39;54688.84;;;-143.77;67.70
13836;BME280;6988;52.614;13.500;2023-02-15T16:30:36;54660.13;;;-143.77;68.06
13836;BME280;6988;52.614;13.500;2023-02-15T16:35:30;54676.53;;;-143.77;68.89
13836;BME280;6988;52.614;13.500;2023-02-15T16:40:45;54703.22;;;-143.77;70.20
13836;BME280;6988;52.614;13.500;2023-02-15T16:45:40;54742.22;;;-143.77;70.24
13836;BME280;6988;52.614;13.500;2023-02-15T16:50:34;54725.78;;;-143.77;70.93
13836;BME280;6988;52.614;13.500;2023-02-15T16:55:33;54748.38;;;-143.77;71.20
13836;BME280;6988;52.614;13.500;2023-02-15T17:00:31;54721.69;;;-143.77;71.26
13836;BME280;6988;52.614;13.500;2023-02-15T17:05:31;54762.72;;;-143.77;71.85
13836;BME280;6988;52.614;13.500;2023-02-15T17:10:30;54766.84;;;-143.77;71.94
13836;BME280;6988;52.614;13.500;2023-02-15T17:15:28;54770.94;;;-143.77;72.15
13836;BME280;6988;52.614;13.500;2023-02-15T17:20:24;54754.53;;;-143.77;72.78
13836;BME280;6988;52.614;13.500;2023-02-15T17:25:21;54801.72;;;-143.77;72.56
13836;BME280;6988;52.614;13.500;2023-02-15T17:30:23;54752.47;;;-143.77;71.85
13836;BME280;6988;52.614;13.500;2023-02-15T17:35:22;54834.56;;;-143.77;72.43
13836;BME280;6988;52.614;13.500;2023-02-15T17:40:23;54809.94;;;-143.77;73.41
13836;BME280;6988;52.614;13.500;2023-02-15T17:45:16;54777.09;;;-143.77;74.51
13836;BME280;6988;52.614;13.500;2023-02-15T17:50:19;54783.25;;;-143.77;74.88
13836;BME280;6988;52.614;13.500;2023-02-15T17:55:15;54799.66;;;-143.77;75.04
13836;BME280;6988;52.614;13.500;2023-02-15T18:00:26;54842.75;;;-143.77;74.60
13836;BME280;6988;52.614;13.500;2023-02-15T18:05:36;54814.03;;;-143.77;74.89
13836;BME280;6988;52.614;13.500;2023-02-15T18:10:45;54830.44;;;-143.77;74.77
13836;BME280;6988;52.614;13.500;2023-02-15T18:15:56;54846.88;;;-143.77;75.00
13836;BME280;6988;52.614;13.500;2023-02-15T18:20:49;54824.28;;;-143.77;74.94
13836;BME280;6988;52.614;13.500;2023-02-15T18:25:41;54844.81;;;-143.77;74.96
13836;BME280;6988;52.614;13.500;2023-02-15T18:30:33;54840.72;;;-143.77;75.13
13836;BME280;6988;52.614;13.500;2023-02-15T18:35:31;54832.50;;;-143.77;75.92
13836;BME280;6988;52.614;13.500;2023-02-15T18:40:26;54853.03;;;-143.77;75.22
13836;BME280;6988;52.614;13.500;2023-02-15T18:45:22;54853.03;;;-143.77;75.48
13836;BME280;6988;52.614;13.500;2023-02-15T18:50:16;54853.03;;;-143.77;76.11
13836;BME280;6988;52.614;13.500;2023-02-15T18:55:20;54844.81;;;-143.77;76.48
13836;BME280;6988;52.614;13.500;2023-02-15T19:00:18;54828.41;;;-143.77;76.44
13836;BME280;6988;52.614;13.500;2023-02-15T19:05:11;54869.44;;;-143.77;76.64
13836;BME280;6988;52.614;13.500;2023-02-15T19:10:07;54875.59;;;-143.77;76.90
13836;BME280;6988;52.614;13.500;2023-02-15T19:15:00;54889.97;;;-143.77;77.20
13836;BME280;6988;52.614;13.500;2023-02-15T19:19:52;54902.28;;;-143.77;77.09
13836;BME280;6988;52.614;13.500;2023-02-15T19:24:46;54877.66;;;-143.77;77.27
13836;BME280;6988;52.614;13.500;2023-02-15T19:29:39;54850.97;;;-143.77;77.36
13836;BME280;6988;52.614;13.500;2023-02-15T19:34:32;54885.84;;;-143.77;77.40
13836;BME280;6988;52.614;13.500;2023-02-15T19:39:27;54861.22;;;-143.77;77.77
13836;BME280;6988;52.614;13.500;2023-02-15T19:44:21;54889.97;;;-143.77;77.58
13836;BME280;6988;52.614;13.500;2023-02-15T19:49:12;54873.53;;;-143.77;77.71
13836;BME280;6988;52.614;13.500;2023-02-15T19:54:19;54902.28;;;-143.77;77.66
13836;BME280;6988;52.614;13.500;2023-02-15T19:59:23;54920.75;;;-143.77;77.71
13836;BME280;6988;52.614;13.500;2023-02-15T20:04:16;54916.63;;;-143.77;77.93
13836;BME280;6988;52.614;13.500;2023-02-15T20:09:19;54885.84;;;-143.77;78.05
13836;BME280;6988;52.614;13.500;2023-02-15T20:14:13;54887.91;;;-143.77;78.19
13836;BME280;6988;52.614;13.500;2023-02-15T20:19:05;54924.84;;;-143.77;78.19
13836;BME280;6988;52.614;13.500;2023-02-15T20:23:59;54908.44;;;-143.77;78.45
13836;BME280;6988;52.614;13.500;2023-02-15T20:28:52;54902.28;;;-143.77;78.35
13836;BME280;6988;52.614;13.500;2023-02-15T20:33:44;54914.59;;;-143.77;78.67
13836;BME280;6988;52.614;13.500;2023-02-15T20:38:36;54906.38;;;-143.77;78.84
13836;BME280;6988;52.614;13.500;2023-02-15T20:43:31;54955.63;;;-143.77;78.56
13836;BME280;6988;52.614;13.500;2023-02-15T20:48:24;54931.00;;;-143.77;78.68
13836;BME280;6988;52.614;13.500;2023-02-15T20:53:16;54935.09;;;-143.77;79.07
13836;BME280;6988;52.614;13.500;2023-02-15T20:58:20;54937.16;;;-143.77;79.07
13836;BME280;6988;52.614;13.500;2023-02-15T21:03:13;54926.91;;;-143.77;78.60
13836;BME280;6988;52.614;13.500;2023-02-15T21:08:11;54970.00;;;-143.77;78.63
13836;BME280;6988;52.614;13.500;2023-02-15T21:13:04;54937.16;;;-143.77;79.09
13836;BME280;6988;52.614;13.500;2023-02-15T21:17:59;54892.00;;;-143.77;78.65
13836;BME280;6988;52.614;13.500;2023-02-15T21:22:51;54918.69;;;-143.77;79.09
13836;BME280;6988;52.614;13.500;2023-02-15T21:27:44;54922.78;;;-143.77;79.37
13836;BME280;6988;52.614;13.500;2023-02-15T21:32:36;54965.88;;;-143.77;79.36
13836;BME280;6988;52.614;13.500;2023-02-15T21:37:32;54976.16;;;-143.77;79.40
13836;BME280;6988;52.614;13.500;2023-02-15T21:42:27;54951.53;;;-143.77;79.55
13836;BME280;6988;52.614;13.500;2023-02-15T21:47:37;54939.22;;;-143.77;79.71
13836;BME280;6988;52.614;13.500;2023-02-15T21:52:41;54955.63;;;-143.77;80.38
13836;BME280;6988;52.614;13.500;2023-02-15T21:57:33;54965.88;;;-143.77;80.25
13836;BME280;6988;52.614;13.500;2023-02-15T22:02:29;54922.78;;;-143.77;80.43
13836;BME280;6988;52.614;13.500;2023-02-15T22:07:22;54972.03;;;-143.77;79.97
13836;BME280;6988;52.614;13.500;2023-02-15T22:12:17;54967.94;;;-143.77;80.39
13836;BME280;6988;52.614;13.500;2023-02-15T22:17:15;54978.19;;;-143.77;80.08
13836;BME280;6988;52.614;13.500;2023-02-15T22:22:07;54951.53;;;-143.77;80.57
13836;BME280;6988;52.614;13.500;2023-02-15T22:27:00;54951.53;;;-143.77;80.17
13836;BME280;6988;52.614;13.500;2023-02-15T22:31:52;54939.22;;;-143.77;80.45
13836;BME280;6988;52.614;13.500;2023-02-15T22:36:44;54976.16;;;-143.77;80.71
13836;BME280;6988;52.614;13.500;2023-02-15T22:41:35;54965.88;;;-143.77;80.36
13836;BME280;6988;52.614;13.500;2023-02-15T23:15:14;54951.53;;;-143.77;82.10
13836;BME280;6988;52.614;13.500;2023-02-15T23:20:12;54974.09;;;-143.77;82.09
13836;BME280;6988;52.614;13.500;2023-02-15T23:25:09;54972.03;;;-143.77;82.08
13836;BME280;6988;52.614;13.500;2023-02-15T23:30:04;55004.88;;;-143.77;82.05
13836;BME280;6988;52.614;13.500;2023-02-15T23:34:58;54967.94;;;-143.77;81.92
13836;BME280;6988;52.614;13.500;2023-02-15T23:39:50;55008.97;;;-143.77;81.58
13836;BME280;6988;52.614;13.500;2023-02-15T23:45:01;54974.09;;;-143.77;81.86
13836;BME280;6988;52.614;13.500;2023-02-15T23:49:53;54988.47;;;-143.77;81.35
13836;BME280;6988;52.614;13.500;2023-02-15T23:54:46;54967.94;;;-143.77;81.20
13836;BME280;6988;52.614;13.500;2023-02-15T23:59:42;54951.53;;;-143.77;81.39
